sensor_id;sensor_type;location;lat;lon;timestamp;pressure;altitude;pressure_sealevel;temperature;humidity
37634;BME280;32048;49.902;22.508;2022-11-14T00:01:08;99958.22;;;5.82;100.00
37634;BME280;32048;49.902;22.508;2022-11-14T00:03:36;99952.97;;;5.82;100.00
37634;BME280;32048;49.902;22.508;2022-11-14T00:06:05;99949.50;;;5.80;100.00
37634;BME280;32048;49.902;22.508;2022-11-14T00:08:32;99946.94;;;5.79;100.00
37634;BME280;32048;49.902;22.508;2022-11-14T00:11:00;99956.53;;;5.80;100.00
37634;BME280;32048;49.902;22.508;2022-11-14T00:13:26;99960.13;;;5.73;100.00
37634;BME280;32048;49.902;22.508;2022-11-14T00:15:53;99951.44;;;5.68;100.00
37634;BME280;32048;49.902;22.508;2022-11-14T00:18:21;99967.13;;;5.69;100.00
37634;BME280;32048;49.902;22.508;2022-11-14T00:20:49;99957.56;;;5.68;100.00
37634;BME280;32048;49.902;22.508;2022-11-14T00:23:16;99956.69;;;5.68;100.00
37634;BME280;32048;49.902;22.508;2022-11-14T00:25:44;99954.09;;;5.66;100.00
37634;BME280;32048;49.902;22.508;2022-11-14T00:28:11;99954.09;;;5.65;100.00
37634;BME280;32048;49.902;22.508;2022-11-14T00:30:38;99956.75;;;5.63;100.00
37634;BME280;32048;49.902;22.508;2022-11-14T00:33:05;99951.53;;;5.60;100.00
37634;BME280;32048;49.902;22.508;2022-11-14T00:35:32;99954.16;;;5.61;100.00
37634;BME280;32048;49.902;22.508;2022-11-14T00:37:59;99958.53;;;5.61;100.00
37634;BME280;32048;49.902;22.508;2022-11-14T00:40:26;99952.38;;;5.62;100.00
37634;BME280;32048;49.902;22.508;2022-11-14T00:42:53;99946.34;;;5.58;100.00
37634;BME280;32048;49.902;22.508;2022-11-14T00:45:20;99948.06;;;5.59;100.00
37634;BME280;32048;49.902;22.508;2022-11-14T00:47:47;99949.84;;;5.56;100.00
37634;BME280;32048;49.902;22.508;2022-11-14T00:50:15;99959.44;;;5.57;100.00
37634;BME280;32048;49.902;22.508;2022-11-14T00:52:42;99953.34;;;5.55;100.00
37634;BME280;32048;49.902;22.508;2022-11-14T00:55:09;99955.97;;;5.56;100.00
37634;BME280;32048;49.902;22.508;2022-11-14T00:57:36;99953.34;;;5.56;100.00
37634;BME280;32048;49.902;22.508;2022-11-14T01:00:04;99953.34;;;5.56;100.00
37634;BME280;32048;49.902;22.508;2022-11-14T01:02:31;99945.50;;;5.55;100.00
37634;BME280;32048;49.902;22.508;2022-11-14T01:04:58;99946.34;;;5.57;100.00
37634;BME280;32048;49.902;22.508;2022-11-14T01:07:25;99942.81;;;5.58;100.00
37634;BME280;32048;49.902;22.508;2022-11-14T01:09:52;99935.88;;;5.57;100.00
37634;BME280;32048;49.902;22.508;2022-11-14T01:12:19;99935.88;;;5.57;100.00
37634;BME280;32048;49.902;22.508;2022-11-14T01:14:46;99927.13;;;5.56;100.00
37634;BME280;32048;49.902;22.508;2022-11-14T01:17:13;99928.06;;;5.54;100.00
37634;BME280;32048;49.902;22.508;2022-11-14T01:19:40;99933.25;;;5.57;100.00
37634;BME280;32048;49.902;22.508;2022-11-14T01:22:07;99927.13;;;5.56;100.00
37634;BME280;32048;49.902;22.508;2022-11-14T01:24:34;99922.75;;;5.58;100.00
37634;BME280;32048;49.902;22.508;2022-11-14T01:27:01;99926.19;;;5.62;100.00
37634;BME280;32048;49.902;22.508;2022-11-14T01:29:29;99923.56;;;5.63;100.00
37634;BME280;32048;49.902;22.508;2022-11-14T01:31:56;99918.31;;;5.65;100.00
37634;BME280;32048;49.902;22.508;2022-11-14T01:34:23;99921.78;;;5.66;100.00
37634;BME280;32048;49.902;22.508;2022-11-14T01:36:50;99923.53;;;5.65;100.00
37634;BME280;32048;49.902;22.508;2022-11-14T01:39:16;99913.06;;;5.63;100.00
37634;BME280;32048;49.902;22.508;2022-11-14T01:41:43;99915.69;;;5.65;100.00
37634;BME280;32048;49.902;22.508;2022-11-14T01:44:47;99912.22;;;5.63;100.00
37634;BME280;32048;49.902;22.508;2022-11-14T01:47:23;99904.34;;;5.63;100.00
37634;BME280;32048;49.902;22.508;2022-11-14T01:49:54;99899.97;;;5.65;100.00
37634;BME280;32048;49.902;22.508;2022-11-14T01:52:33;99902.59;;;5.63;100.00
37634;BME280;32048;49.902;22.508;2022-11-14T01:55:06;99913.94;;;5.64;100.00
37634;BME280;32048;49.902;22.508;2022-11-14T01:57:41;99900.88;;;5.61;100.00
37634;BME280;32048;49.902;22.508;2022-11-14T02:00:10;99905.22;;;5.62;100.00
37634;BME280;32048;49.902;22.508;2022-11-14T02:02:38;99902.59;;;5.63;100.00
37634;BME280;32048;49.902;22.508;2022-11-14T02:05:08;99897.34;;;5.63;100.00
37634;BME280;32048;49.902;22.508;2022-11-14T02:07:38;99890.47;;;5.56;100.00
37634;BME280;32048;49.902;22.508;2022-11-14T02:10:08;99887.00;;;5.54;100.00
37634;BME280;32048;49.902;22.508;2022-11-14T02:12:37;99886.09;;;5.55;100.00
37634;BME280;32048;49.902;22.508;2022-11-14T02:15:04;99891.31;;;5.57;100.00
37634;BME280;32048;49.902;22.508;2022-11-14T02:17:31;99886.94;;;5.56;100.00
37634;BME280;32048;49.902;22.508;2022-11-14T02:22:39;99876.53;;;5.53;100.00
37634;BME280;32048;49.902;22.508;2022-11-14T02:25:07;99887.88;;;5.53;100.00
37634;BME280;32048;49.902;22.508;2022-11-14T02:27:36;99885.28;;;5.50;100.00
37634;BME280;32048;49.902;22.508;2022-11-14T02:30:09;99886.13;;;5.54;100.00
37634;BME280;32048;49.902;22.508;2022-11-14T02:32:36;99886.09;;;5.55;100.00
37634;BME280;32048;49.902;22.508;2022-11-14T02:35:24;99886.94;;;5.56;100.00
37634;BME280;32048;49.902;22.508;2022-11-14T02:37:51;99888.75;;;5.54;100.00
37634;BME280;32048;49.902;22.508;2022-11-14T02:40:18;99881.75;;;5.53;100.00
37634;BME280;32048;49.902;22.508;2022-11-14T02:42:45;99884.38;;;5.51;100.00
37634;BME280;32048;49.902;22.508;2022-11-14T02:45:12;99887.91;;;5.50;100.00
37634;BME280;32048;49.902;22.508;2022-11-14T02:47:39;99882.69;;;5.49;100.00
37634;BME280;32048;49.902;22.508;2022-11-14T02:50:06;99879.22;;;5.48;100.00
37634;BME280;32048;49.902;22.508;2022-11-14T02:52:33;99881.81;;;5.50;100.00
37634;BME280;32048;49.902;22.508;2022-11-14T02:55:00;99873.97;;;5.50;100.00
37634;BME280;32048;49.902;22.508;2022-11-14T02:57:27;99882.66;;;5.50;100.00
37634;BME280;32048;49.902;22.508;2022-11-14T02:59:54;99886.16;;;5.51;100.00
37634;BME280;32048;49.902;22.508;2022-11-14T03:02:20;99874.75;;;5.53;100.00
37634;BME280;32048;49.902;22.508;2022-11-14T03:04:47;99878.22;;;5.55;100.00
37634;BME280;32048;49.902;22.508;2022-11-14T03:07:14;99869.50;;;5.55;100.00
37634;BME280;32048;49.902;22.508;2022-11-14T03:09:41;99874.81;;;5.52;100.00
37634;BME280;32048;49.902;22.508;2022-11-14T03:12:08;99858.16;;;5.54;100.00
37634;BME280;32048;49.902;22.508;2022-11-14T03:14:35;99859.03;;;5.56;100.00
37634;BME280;32048;49.902;22.508;2022-11-14T03:17:02;99854.72;;;5.51;100.00
37634;BME280;32048;49.902;22.508;2022-11-14T03:19:29;99859.09;;;5.52;100.00
37634;BME280;32048;49.902;22.508;2022-11-14T03:21:56;99862.56;;;5.54;100.00
37634;BME280;32048;49.902;22.508;2022-11-14T03:24:22;99857.31;;;5.52;100.00
37634;BME280;32048;49.902;22.508;2022-11-14T03:26:50;99861.66;;;5.53;100.00
37634;BME280;32048;49.902;22.508;2022-11-14T03:29:17;99855.56;;;5.54;100.00
37634;BME280;32048;49.902;22.508;2022-11-14T03:31:44;99850.31;;;5.53;100.00
37634;BME280;32048;49.902;22.508;2022-11-14T03:34:10;99852.88;;;5.56;100.00
37634;BME280;32048;49.902;22.508;2022-11-14T03:36:37;99849.41;;;5.57;100.00
37634;BME280;32048;49.902;22.508;2022-11-14T03:39:05;99848.50;;;5.58;100.00
37634;BME280;32048;49.902;22.508;2022-11-14T03:41:32;99858.06;;;5.60;100.00
37634;BME280;32048;49.902;22.508;2022-11-14T03:43:58;99854.56;;;5.61;100.00
37634;BME280;32048;49.902;22.508;2022-11-14T03:46:26;99857.25;;;5.58;100.00
37634;BME280;32048;49.902;22.508;2022-11-14T03:48:52;99857.25;;;5.57;100.00
37634;BME280;32048;49.902;22.508;2022-11-14T03:51:19;99859.88;;;5.58;100.00
37634;BME280;32048;49.902;22.508;2022-11-14T03:53:46;99856.41;;;5.56;100.00
37634;BME280;32048;49.902;22.508;2022-11-14T03:56:13;99851.13;;;5.58;100.00
37634;BME280;32048;49.902;22.508;2022-11-14T03:58:40;99855.56;;;5.54;100.00
37634;BME280;32048;49.902;22.508;2022-11-14T04:01:07;99849.41;;;5.55;100.00
37634;BME280;32048;49.902;22.508;2022-11-14T04:03:34;99847.66;;;5.56;100.00
37634;BME280;32048;49.902;22.508;2022-11-14T04:06:01;99845.09;;;5.53;100.00
37634;BME280;32048;49.902;22.508;2022-11-14T04:08:29;99852.09;;;5.49;100.00
37634;BME280;32048;49.902;22.508;2022-11-14T04:10:56;99846.88;;;5.49;100.00
37634;BME280;32048;49.902;22.508;2022-11-14T04:13:23;99835.50;;;5.50;100.00
37634;BME280;32048;49.902;22.508;2022-11-14T04:15:54;99830.28;;;5.50;100.00
37634;BME280;32048;49.902;22.508;2022-11-14T04:18:22;99825.91;;;5.49;100.00
37634;BME280;32048;49.902;22.508;2022-11-14T04:20:49;99825.09;;;5.47;100.00
37634;BME280;32048;49.902;22.508;2022-11-14T04:23:17;99824.25;;;5.45;100.00
37634;BME280;32048;49.902;22.508;2022-11-14T04:25:45;99821.59;;;5.47;100.00
37634;BME280;32048;49.902;22.508;2022-11-14T04:28:12;99817.22;;;5.47;100.00
37634;BME280;32048;49.902;22.508;2022-11-14T04:30:39;99814.56;;;5.49;100.00
37634;BME280;32048;49.902;22.508;2022-11-14T04:33:06;99824.19;;;5.50;100.00
37634;BME280;32048;49.902;22.508;2022-11-14T04:35:33;99822.44;;;5.49;100.00
37634;BME280;32048;49.902;22.508;2022-11-14T04:38:00;99820.72;;;5.48;100.00
37634;BME280;32048;49.902;22.508;2022-11-14T04:40:27;99818.03;;;5.49;100.00
37634;BME280;32048;49.902;22.508;2022-11-14T04:42:54;99809.31;;;5.50;100.00
37634;BME280;32048;49.902;22.508;2022-11-14T04:45:21;99808.41;;;5.51;100.00
37634;BME280;32048;49.902;22.508;2022-11-14T04:47:48;99809.31;;;5.52;100.00
37634;BME280;32048;49.902;22.508;2022-11-14T04:50:15;99795.38;;;5.50;100.00
37634;BME280;32048;49.902;22.508;2022-11-14T04:52:42;99796.22;;;5.50;100.00
37634;BME280;32048;49.902;22.508;2022-11-14T04:55:09;99801.47;;;5.49;100.00
37634;BME280;32048;49.902;22.508;2022-11-14T04:57:36;99803.22;;;5.48;100.00
37634;BME280;32048;49.902;22.508;2022-11-14T05:00:03;99798.91;;;5.44;100.00
37634;BME280;32048;49.902;22.508;2022-11-14T05:02:31;99803.28;;;5.45;100.00
37634;BME280;32048;49.902;22.508;2022-11-14T05:04:58;99806.72;;;5.49;100.00
37634;BME280;32048;49.902;22.508;2022-11-14T05:07:25;99813.66;;;5.51;100.00
37634;BME280;32048;49.902;22.508;2022-11-14T05:09:52;99801.41;;;5.53;100.00
37634;BME280;32048;49.902;22.508;2022-11-14T05:12:19;99812.78;;;5.54;100.00
37634;BME280;32048;49.902;22.508;2022-11-14T05:14:46;99797.06;;;5.52;100.00
37634;BME280;32048;49.902;22.508;2022-11-14T05:17:14;99801.41;;;5.53;100.00
37634;BME280;32048;49.902;22.508;2022-11-14T05:19:41;99800.53;;;5.54;100.00
37634;BME280;32048;49.902;22.508;2022-11-14T05:22:08;99804.00;;;5.55;100.00
37634;BME280;32048;49.902;22.508;2022-11-14T05:24:35;99795.28;;;5.54;100.00
37634;BME280;32048;49.902;22.508;2022-11-14T05:27:01;99801.38;;;5.56;100.00
37634;BME280;32048;49.902;22.508;2022-11-14T05:29:28;99804.91;;;5.54;100.00
37634;BME280;32048;49.902;22.508;2022-11-14T05:31:55;99795.31;;;5.51;100.00
37634;BME280;32048;49.902;22.508;2022-11-14T05:34:23;99793.59;;;5.52;100.00
37634;BME280;32048;49.902;22.508;2022-11-14T05:36:50;99802.28;;;5.54;100.00
37634;BME280;32048;49.902;22.508;2022-11-14T05:39:17;99800.56;;;5.51;100.00
37634;BME280;32048;49.902;22.508;2022-11-14T05:41:44;99799.69;;;5.52;100.00
37634;BME280;32048;49.902;22.508;2022-11-14T05:44:11;99794.53;;;5.45;100.00
37634;BME280;32048;49.902;22.508;2022-11-14T05:46:38;99791.84;;;5.49;100.00
37634;BME280;32048;49.902;22.508;2022-11-14T05:49:05;99797.09;;;5.49;100.00
37634;BME280;32048;49.902;22.508;2022-11-14T05:51:32;99794.47;;;5.51;100.00
37634;BME280;32048;49.902;22.508;2022-11-14T05:53:59;99802.31;;;5.51;100.00
37634;BME280;32048;49.902;22.508;2022-11-14T05:56:25;99799.69;;;5.52;100.00
37634;BME280;32048;49.902;22.508;2022-11-14T05:58:53;99798.78;;;5.53;100.00
37634;BME280;32048;49.902;22.508;2022-11-14T06:01:20;99809.31;;;5.52;100.00
37634;BME280;32048;49.902;22.508;2022-11-14T06:03:47;99810.94;;;5.59;100.00
37634;BME280;32048;49.902;22.508;2022-11-14T06:06:17;99802.19;;;5.60;100.00
37634;BME280;32048;49.902;22.508;2022-11-14T06:08:45;99803.09;;;5.59;100.00
37634;BME280;32048;49.902;22.508;2022-11-14T06:11:14;99810.91;;;5.60;100.00
37634;BME280;32048;49.902;22.508;2022-11-14T06:13:42;99809.13;;;5.62;100.00
37634;BME280;32048;49.902;22.508;2022-11-14T06:16:15;99810.88;;;5.63;100.00
37634;BME280;32048;49.902;22.508;2022-11-14T06:18:42;99813.53;;;5.60;100.00
37634;BME280;32048;49.902;22.508;2022-11-14T06:23:38;99819.66;;;5.59;100.00
37634;BME280;32048;49.902;22.508;2022-11-14T06:26:11;99818.81;;;5.57;100.00
37634;BME280;32048;49.902;22.508;2022-11-14T06:28:40;99822.34;;;5.56;100.00
37634;BME280;32048;49.902;22.508;2022-11-14T06:31:07;99816.25;;;5.54;100.00
37634;BME280;32048;49.902;22.508;2022-11-14T06:33:35;99822.34;;;5.56;100.00
37634;BME280;32048;49.902;22.508;2022-11-14T06:36:05;99815.34;;;5.55;100.00
37634;BME280;32048;49.902;22.508;2022-11-14T06:38:32;99811.94;;;5.52;100.00
37634;BME280;32048;49.902;22.508;2022-11-14T06:41:17;99813.63;;;5.54;100.00
37634;BME280;32048;49.902;22.508;2022-11-14T06:43:46;99818.81;;;5.57;100.00
37634;BME280;32048;49.902;22.508;2022-11-14T06:46:17;99813.59;;;5.56;100.00
37634;BME280;32048;49.902;22.508;2022-11-14T06:48:44;99817.97;;;5.57;100.00
37634;BME280;32048;49.902;22.508;2022-11-14T06:51:13;99819.72;;;5.55;100.00
37634;BME280;32048;49.902;22.508;2022-11-14T06:53:41;99817.97;;;5.57;100.00
37634;BME280;32048;49.902;22.508;2022-11-14T06:56:11;99817.09;;;5.56;100.00
37634;BME280;32048;49.902;22.508;2022-11-14T06:58:42;99817.03;;;5.59;100.00
37634;BME280;32048;49.902;22.508;2022-11-14T07:01:16;99825.81;;;5.58;100.00
37634;BME280;32048;49.902;22.508;2022-11-14T07:03:44;99827.53;;;5.59;100.00
37634;BME280;32048;49.902;22.508;2022-11-14T07:06:15;99829.28;;;5.59;100.00
37634;BME280;32048;49.902;22.508;2022-11-14T07:08:42;99830.13;;;5.59;100.00
37634;BME280;32048;49.902;22.508;2022-11-14T07:11:18;99824.88;;;5.61;100.00
37634;BME280;32048;49.902;22.508;2022-11-14T07:13:55;99822.28;;;5.61;100.00
37634;BME280;32048;49.902;22.508;2022-11-14T07:16:29;99834.41;;;5.67;100.00
37634;BME280;32048;49.902;22.508;2022-11-14T07:18:57;99820.38;;;5.69;100.00
37634;BME280;32048;49.902;22.508;2022-11-14T07:21:25;99815.97;;;5.73;100.00
37634;BME280;32048;49.902;22.508;2022-11-14T07:23:52;99821.22;;;5.73;100.00
37634;BME280;32048;49.902;22.508;2022-11-14T07:26:20;99821.22;;;5.71;100.00
37634;BME280;32048;49.902;22.508;2022-11-14T07:28:47;99815.97;;;5.74;100.00
37634;BME280;32048;49.902;22.508;2022-11-14T07:31:20;99808.91;;;5.78;100.00
37634;BME280;32048;49.902;22.508;2022-11-14T07:33:47;99812.38;;;5.78;100.00
37634;BME280;32048;49.902;22.508;2022-11-14T07:36:15;99813.22;;;5.80;100.00
37634;BME280;32048;49.902;22.508;2022-11-14T07:38:42;99814.19;;;5.76;100.00
37634;BME280;32048;49.902;22.508;2022-11-14T07:41:10;99819.44;;;5.75;100.00
37634;BME280;32048;49.902;22.508;2022-11-14T07:43:38;99819.59;;;5.64;100.00
37634;BME280;32048;49.902;22.508;2022-11-14T07:46:11;99821.38;;;5.60;100.00
37634;BME280;32048;49.902;22.508;2022-11-14T07:48:38;99823.06;;;5.65;100.00
37634;BME280;32048;49.902;22.508;2022-11-14T07:51:08;99816.09;;;5.65;100.00
37634;BME280;32048;49.902;22.508;2022-11-14T07:53:35;99825.59;;;5.71;100.00
37634;BME280;32048;49.902;22.508;2022-11-14T07:56:04;99822.13;;;5.72;100.00
37634;BME280;32048;49.902;22.508;2022-11-14T07:58:33;99822.16;;;5.69;100.00
37634;BME280;32048;49.902;22.508;2022-11-14T08:01:01;99811.66;;;5.69;100.00
37634;BME280;32048;49.902;22.508;2022-11-14T08:03:28;99808.09;;;5.73;100.00
37634;BME280;32048;49.902;22.508;2022-11-14T08:06:02;99808.97;;;5.75;100.00
37634;BME280;32048;49.902;22.508;2022-11-14T08:08:29;99809.78;;;5.77;100.00
37634;BME280;32048;49.902;22.508;2022-11-14T08:10:58;99802.78;;;5.79;100.00
37634;BME280;32048;49.902;22.508;2022-11-14T08:13:26;99803.56;;;5.82;100.00
37634;BME280;32048;49.902;22.508;2022-11-14T08:16:03;99805.25;;;5.87;100.00
37634;BME280;32048;49.902;22.508;2022-11-14T08:18:38;99799.16;;;5.88;100.00
37634;BME280;32048;49.902;22.508;2022-11-14T08:21:05;99795.69;;;5.84;100.00
37634;BME280;32048;49.902;22.508;2022-11-14T08:23:32;99793.97;;;5.83;100.00
37634;BME280;32048;49.902;22.508;2022-11-14T08:25:59;99795.00;;;5.74;100.00
37634;BME280;32048;49.902;22.508;2022-11-14T08:28:26;99793.28;;;5.72;100.00
37634;BME280;32048;49.902;22.508;2022-11-14T08:31:01;99795.91;;;5.72;100.00
37634;BME280;32048;49.902;22.508;2022-11-14T08:33:29;99792.38;;;5.73;100.00
37634;BME280;32048;49.902;22.508;2022-11-14T08:36:04;99797.56;;;5.77;100.00
37634;BME280;32048;49.902;22.508;2022-11-14T08:38:33;99791.41;;;5.78;100.00
37634;BME280;32048;49.902;22.508;2022-11-14T08:41:00;99800.31;;;5.70;100.00
37634;BME280;32048;49.902;22.508;2022-11-14T08:43:32;99792.53;;;5.65;100.00
37634;BME280;32048;49.902;22.508;2022-11-14T08:46:00;99793.41;;;5.62;100.00
37634;BME280;32048;49.902;22.508;2022-11-14T08:48:28;99793.47;;;5.59;100.00
37634;BME280;32048;49.902;22.508;2022-11-14T08:50:56;99789.91;;;5.62;100.00
37634;BME280;32048;49.902;22.508;2022-11-14T08:53:23;99787.28;;;5.65;100.00
37634;BME280;32048;49.902;22.508;2022-11-14T08:55:50;99786.31;;;5.69;100.00
37634;BME280;32048;49.902;22.508;2022-11-14T08:58:17;99784.59;;;5.70;100.00
37634;BME280;32048;49.902;22.508;2022-11-14T09:00:44;99787.22;;;5.68;100.00
37634;BME280;32048;49.902;22.508;2022-11-14T09:03:11;99784.75;;;5.56;100.00
37634;BME280;32048;49.902;22.508;2022-11-14T09:05:42;99789.13;;;5.57;100.00
37634;BME280;32048;49.902;22.508;2022-11-14T09:08:09;99782.13;;;5.59;100.00
37634;BME280;32048;49.902;22.508;2022-11-14T09:10:36;99778.66;;;5.57;100.00
37634;BME280;32048;49.902;22.508;2022-11-14T09:13:03;99777.81;;;5.55;100.00
37634;BME280;32048;49.902;22.508;2022-11-14T09:15:30;99777.75;;;5.59;100.00
37634;BME280;32048;49.902;22.508;2022-11-14T09:17:57;99776.81;;;5.63;100.00
37634;BME280;32048;49.902;22.508;2022-11-14T09:20:24;99781.06;;;5.71;100.00
37634;BME280;32048;49.902;22.508;2022-11-14T09:23:00;99781.06;;;5.71;100.00
37634;BME280;32048;49.902;22.508;2022-11-14T09:25:28;99769.72;;;5.69;100.00
37634;BME280;32048;49.902;22.508;2022-11-14T09:27:56;99772.34;;;5.69;100.00
37634;BME280;32048;49.902;22.508;2022-11-14T09:30:24;99770.63;;;5.68;100.00
37634;BME280;32048;49.902;22.508;2022-11-14T09:32:51;99774.97;;;5.69;100.00
37634;BME280;32048;49.902;22.508;2022-11-14T09:35:18;99764.47;;;5.70;100.00
37634;BME280;32048;49.902;22.508;2022-11-14T09:37:45;99762.66;;;5.74;100.00
37634;BME280;32048;49.902;22.508;2022-11-14T09:40:12;99757.41;;;5.75;100.00
37634;BME280;32048;49.902;22.508;2022-11-14T09:43:09;99754.78;;;5.75;100.00
37634;BME280;32048;49.902;22.508;2022-11-14T09:45:43;99752.97;;;5.79;100.00
37634;BME280;32048;49.902;22.508;2022-11-14T09:48:17;99755.63;;;5.77;100.00
37634;BME280;32048;49.902;22.508;2022-11-14T09:50:52;99755.69;;;5.74;100.00
37634;BME280;32048;49.902;22.508;2022-11-14T09:53:33;99756.47;;;5.78;100.00
37634;BME280;32048;49.902;22.508;2022-11-14T09:56:02;99752.09;;;5.78;100.00
37634;BME280;32048;49.902;22.508;2022-11-14T09:58:29;99747.69;;;5.80;100.00
37634;BME280;32048;49.902;22.508;2022-11-14T10:01:26;99747.69;;;5.80;100.00
37634;BME280;32048;49.902;22.508;2022-11-14T10:04:17;99739.91;;;5.77;100.00
37634;BME280;32048;49.902;22.508;2022-11-14T10:06:59;99741.59;;;5.78;100.00
37634;BME280;32048;49.902;22.508;2022-11-14T10:09:56;99734.56;;;5.82;100.00
37634;BME280;32048;49.902;22.508;2022-11-14T10:12:33;99742.34;;;5.88;100.00
37634;BME280;32048;49.902;22.508;2022-11-14T10:28:47;99721.28;;;5.93;100.00
37634;BME280;32048;49.902;22.508;2022-11-14T10:34:13;99723.00;;;5.97;100.00
37634;BME280;32048;49.902;22.508;2022-11-14T10:42:23;99716.88;;;5.96;100.00
37634;BME280;32048;49.902;22.508;2022-11-14T10:45:02;99715.19;;;5.91;100.00
37634;BME280;32048;49.902;22.508;2022-11-14T10:47:42;99714.28;;;5.92;100.00
37634;BME280;32048;49.902;22.508;2022-11-14T10:50:26;99701.25;;;5.90;100.00
37634;BME280;32048;49.902;22.508;2022-11-14T10:52:57;99708.44;;;5.79;100.00
37634;BME280;32048;49.902;22.508;2022-11-14T10:55:26;99704.13;;;5.73;100.00
37634;BME280;32048;49.902;22.508;2022-11-14T10:58:13;99695.34;;;5.77;100.00
37634;BME280;32048;49.902;22.508;2022-11-14T11:00:40;99700.50;;;5.82;100.00
37634;BME280;32048;49.902;22.508;2022-11-14T11:03:07;99696.00;;;5.89;100.00
37634;BME280;32048;49.902;22.508;2022-11-14T11:05:48;99687.22;;;5.94;100.00
37634;BME280;32048;49.902;22.508;2022-11-14T11:08:22;99697.53;;;6.03;100.00
37634;BME280;32048;49.902;22.508;2022-11-14T11:11:13;99686.03;;;6.12;100.00
37634;BME280;32048;49.902;22.508;2022-11-14T11:13:59;99687.66;;;6.16;100.00
37634;BME280;32048;49.902;22.508;2022-11-14T11:16:27;99683.34;;;6.14;100.00
37634;BME280;32048;49.902;22.508;2022-11-14T11:19:13;99690.25;;;6.18;100.00
37634;BME280;32048;49.902;22.508;2022-11-14T11:21:49;99681.56;;;6.16;100.00
37634;BME280;32048;49.902;22.508;2022-11-14T11:32:34;99677.53;;;5.96;100.00
37634;BME280;32048;49.902;22.508;2022-11-14T11:35:10;99675.91;;;5.89;100.00
37634;BME280;32048;49.902;22.508;2022-11-14T11:37:46;99679.44;;;5.87;100.00
37634;BME280;32048;49.902;22.508;2022-11-14T11:40:26;99674.31;;;5.80;100.00
37634;BME280;32048;49.902;22.508;2022-11-14T11:43:01;99686.69;;;5.72;100.00
37634;BME280;32048;49.902;22.508;2022-11-14T11:45:53;99683.28;;;5.67;100.00
37634;BME280;32048;49.902;22.508;2022-11-14T11:48:22;99685.09;;;5.65;100.00
37634;BME280;32048;49.902;22.508;2022-11-14T11:50:49;99680.78;;;5.61;100.00
37634;BME280;32048;49.902;22.508;2022-11-14T11:55:49;99665.97;;;5.58;100.00
37634;BME280;32048;49.902;22.508;2022-11-14T12:01:16;99665.16;;;5.55;100.00
37634;BME280;32048;49.902;22.508;2022-11-14T12:03:48;99662.53;;;5.55;100.00
37634;BME280;32048;49.902;22.508;2022-11-14T12:06:21;99662.53;;;5.55;100.00
37634;BME280;32048;49.902;22.508;2022-11-14T12:09:12;99659.91;;;5.56;100.00
37634;BME280;32048;49.902;22.508;2022-11-14T12:11:45;99646.72;;;5.59;100.00
37634;BME280;32048;49.902;22.508;2022-11-14T12:14:38;99645.88;;;5.59;100.00
37634;BME280;32048;49.902;22.508;2022-11-14T12:26:49;99638.03;;;5.57;100.00
37634;BME280;32048;49.902;22.508;2022-11-14T12:31:57;99638.88;;;5.59;100.00
37634;BME280;32048;49.902;22.508;2022-11-14T12:34:33;99628.47;;;5.56;100.00
37634;BME280;32048;49.902;22.508;2022-11-14T12:37:14;99623.22;;;5.56;100.00
37634;BME280;32048;49.902;22.508;2022-11-14T12:39:57;99628.41;;;5.58;100.00
37634;BME280;32048;49.902;22.508;2022-11-14T12:42:24;99631.91;;;5.58;100.00
37634;BME280;32048;49.902;22.508;2022-11-14T12:44:51;99626.69;;;5.58;100.00
37634;BME280;32048;49.902;22.508;2022-11-14T12:47:21;99629.31;;;5.58;100.00
37634;BME280;32048;49.902;22.508;2022-11-14T13:06:03;99621.47;;;5.57;100.00
37634;BME280;32048;49.902;22.508;2022-11-14T13:08:46;99620.59;;;5.56;100.00
37634;BME280;32048;49.902;22.508;2022-11-14T13:11:35;99613.66;;;5.54;100.00
37634;BME280;32048;49.902;22.508;2022-11-14T13:14:22;99611.97;;;5.50;100.00
37634;BME280;32048;49.902;22.508;2022-11-14T13:20:02;99611.25;;;5.40;100.00
37634;BME280;32048;49.902;22.508;2022-11-14T13:33:42;99604.41;;;5.31;100.00
37634;BME280;32048;49.902;22.508;2022-11-14T13:39:14;99592.22;;;5.32;100.00
37634;BME280;32048;49.902;22.508;2022-11-14T13:42:10;99589.53;;;5.33;100.00
37634;BME280;32048;49.902;22.508;2022-11-14T13:50:34;99591.47;;;5.22;100.00
37634;BME280;32048;49.902;22.508;2022-11-14T13:53:14;99591.63;;;5.14;100.00
37634;BME280;32048;49.902;22.508;2022-11-14T14:04:37;99583.84;;;5.11;100.00
37634;BME280;32048;49.902;22.508;2022-11-14T14:07:19;99588.25;;;5.06;100.00
37634;BME280;32048;49.902;22.508;2022-11-14T14:10:12;99579.63;;;5.01;100.00
37634;BME280;32048;49.902;22.508;2022-11-14T14:24:30;99569.28;;;4.93;100.00
37634;BME280;32048;49.902;22.508;2022-11-14T14:32:19;99563.16;;;4.94;100.00
37634;BME280;32048;49.902;22.508;2022-11-14T14:34:47;99551.75;;;4.97;100.00
37634;BME280;32048;49.902;22.508;2022-11-14T14:37:25;99549.16;;;4.95;100.00
37634;BME280;32048;49.902;22.508;2022-11-14T14:42:23;99545.69;;;4.95;100.00
37634;BME280;32048;49.902;22.508;2022-11-14T14:44:50;99541.31;;;4.95;100.00
37634;BME280;32048;49.902;22.508;2022-11-14T14:47:29;99545.69;;;4.95;100.00
37634;BME280;32048;49.902;22.508;2022-11-14T14:50:12;99543.94;;;4.95;100.00
37634;BME280;32048;49.902;22.508;2022-11-14T14:52:41;99549.31;;;4.88;100.00
37634;BME280;32048;49.902;22.508;2022-11-14T14:55:18;99543.25;;;4.84;100.00
37634;BME280;32048;49.902;22.508;2022-11-14T14:57:46;99540.63;;;4.84;100.00
37634;BME280;32048;49.902;22.508;2022-11-14T15:02:43;99541.44;;;4.88;100.00
37634;BME280;32048;49.902;22.508;2022-11-14T15:05:23;99531.84;;;4.88;100.00
37634;BME280;32048;49.902;22.508;2022-11-14T15:07:54;99537.91;;;4.90;100.00
37634;BME280;32048;49.902;22.508;2022-11-14T15:10:24;99535.28;;;4.92;100.00